createdAt,value
2018-11-21T00:01:13.332Z,19.65
2018-11-21T00:03:40.399Z,21.20
2018-11-21T00:06:07.468Z,20.77
2018-11-21T00:08:34.600Z,20.65
2018-11-21T00:11:01.665Z,24.10
2018-11-21T00:13:28.713Z,16.57
2018-11-21T00:15:55.739Z,17.80
2018-11-21T00:18:22.789Z,16.77
2018-11-21T00:20:49.849Z,19.00
2018-11-21T00:23:16.881Z,18.48
2018-11-21T00:25:43.952Z,18.82
2018-11-21T00:28:11.037Z,18.40
2018-11-21T00:30:38.100Z,16.15
2018-11-21T00:33:05.172Z,17.80
2018-11-21T00:35:32.228Z,14.98
2018-11-21T00:37:59.438Z,18.00
2018-11-21T00:40:26.497Z,15.75
2018-11-21T00:42:53.590Z,20.00
2018-11-21T00:45:20.667Z,15.75
2018-11-21T00:47:47.764Z,15.48
2018-11-21T00:50:14.811Z,16.67
2018-11-21T00:52:41.937Z,19.52
2018-11-21T00:55:08.957Z,21.42
2018-11-21T00:57:36.076Z,19.95
2018-11-21T01:00:03.828Z,13.55
2018-11-21T01:02:30.905Z,16.60
2018-11-21T01:04:57.968Z,13.53
2018-11-21T01:07:25.121Z,14.78
2018-11-21T01:09:52.195Z,16.35
2018-11-21T01:12:19.283Z,16.32
2018-11-21T01:14:46.380Z,14.75
2018-11-21T01:17:13.533Z,16.32
2018-11-21T01:19:40.600Z,16.48
2018-11-21T01:22:07.641Z,14.60
2018-11-21T01:24:34.696Z,17.32
2018-11-21T01:27:01.747Z,18.05
2018-11-21T01:29:28.809Z,18.05
2018-11-21T01:31:55.861Z,15.85
2018-11-21T01:34:22.955Z,17.07
2018-11-21T01:36:50.021Z,21.50
2018-11-21T01:39:17.108Z,16.35
2018-11-21T01:41:44.152Z,17.62
2018-11-21T01:44:11.263Z,18.80
2018-11-21T01:46:38.342Z,19.95
2018-11-21T01:49:05.420Z,15.03
2018-11-21T01:51:32.775Z,19.67
2018-11-21T01:54:00.053Z,15.65
2018-11-21T01:56:27.211Z,21.40
2018-11-21T01:58:54.445Z,22.93
2018-11-21T02:01:21.525Z,15.98
2018-11-21T02:03:48.588Z,15.95
2018-11-21T02:06:15.645Z,15.00
2018-11-21T02:08:42.712Z,16.42
2018-11-21T02:11:09.786Z,15.95
2018-11-21T02:13:36.858Z,20.72
2018-11-21T02:16:04.639Z,17.35
2018-11-21T02:18:31.681Z,14.10
2018-11-21T02:20:58.743Z,16.32
2018-11-21T02:23:25.809Z,15.35
2018-11-21T02:25:52.912Z,18.77
2018-11-21T02:28:19.962Z,14.33
2018-11-21T02:30:48.437Z,15.53
2018-11-21T02:33:15.499Z,15.83
2018-11-21T02:35:42.574Z,21.17
2018-11-21T02:38:09.638Z,19.25
2018-11-21T02:40:36.707Z,19.45
2018-11-21T02:43:03.785Z,14.30
2018-11-21T02:45:30.893Z,17.85
2018-11-21T02:47:57.971Z,20.88
2018-11-21T02:50:25.026Z,23.00
2018-11-21T02:52:52.366Z,17.32
2018-11-21T02:55:19.444Z,17.80
2018-11-21T02:57:46.535Z,18.32
2018-11-21T03:00:16.066Z,21.40
2018-11-21T03:02:43.130Z,18.50
2018-11-21T03:05:10.205Z,20.80
2018-11-21T03:07:39.835Z,19.57
2018-11-21T03:10:06.891Z,19.30
2018-11-21T03:12:33.937Z,22.27
2018-11-21T03:15:01.032Z,18.98
2018-11-21T03:17:28.073Z,21.23
2018-11-21T03:19:55.121Z,25.15
2018-11-21T03:22:22.191Z,22.75
2018-11-21T03:24:49.284Z,20.82
2018-11-21T03:27:16.317Z,21.05
2018-11-21T03:29:43.370Z,19.62
2018-11-21T03:32:10.429Z,26.15
2018-11-21T03:34:37.509Z,19.73
2018-11-21T03:37:04.552Z,21.00
2018-11-21T03:39:31.604Z,21.68
2018-11-21T03:41:59.844Z,19.10
2018-11-21T03:44:26.895Z,22.15
2018-11-21T03:46:53.958Z,24.50
2018-11-21T03:49:21.026Z,16.62
2018-11-21T03:51:48.102Z,21.27
2018-11-21T03:54:15.156Z,22.67
2018-11-21T03:56:42.202Z,22.77
2018-11-21T03:59:09.736Z,25.77
2018-11-21T04:01:37.215Z,24.07
2018-11-21T04:04:05.029Z,21.20
2018-11-21T04:06:32.090Z,29.48
2018-11-21T04:08:59.185Z,24.27
2018-11-21T04:11:26.304Z,20.30
2018-11-21T04:13:53.414Z,22.87
2018-11-21T04:16:20.553Z,22.80
2018-11-21T04:18:51.877Z,26.40
2018-11-21T04:21:19.021Z,22.48
2018-11-21T04:23:46.116Z,18.37
2018-11-21T04:26:13.785Z,24.27
2018-11-21T04:28:40.871Z,22.70
2018-11-21T04:31:07.964Z,20.43
2018-11-21T04:33:35.044Z,19.60
2018-11-21T04:36:02.104Z,26.65
2018-11-21T04:38:29.142Z,21.20
2018-11-21T04:40:56.230Z,22.22
2018-11-21T04:43:23.302Z,16.07
2018-11-21T04:45:50.437Z,20.17
2018-11-21T04:48:17.513Z,13.08
2018-11-21T04:50:44.572Z,22.02
2018-11-21T04:53:11.629Z,20.40
2018-11-21T04:55:38.681Z,17.30
2018-11-21T04:58:05.766Z,19.02
2018-11-21T05:00:32.847Z,21.35
2018-11-21T05:03:01.120Z,18.90
2018-11-21T05:05:28.193Z,21.75
2018-11-21T05:07:55.247Z,23.62
2018-11-21T05:10:22.377Z,22.98
2018-11-21T05:12:49.435Z,17.67
2018-11-21T05:15:16.516Z,22.82
2018-11-21T05:17:43.592Z,18.98
2018-11-21T05:20:10.706Z,18.45
2018-11-21T05:22:38.153Z,19.00
2018-11-21T05:25:05.697Z,24.15
2018-11-21T05:27:32.773Z,16.60
2018-11-21T05:29:59.836Z,18.27
2018-11-21T05:32:26.885Z,23.80
2018-11-21T05:34:53.955Z,18.73
2018-11-21T05:37:21.052Z,19.12
2018-11-21T05:39:48.102Z,21.90
2018-11-21T05:42:15.248Z,19.50
2018-11-21T05:44:42.778Z,17.60
2018-11-21T05:47:09.834Z,19.23
2018-11-21T05:49:36.908Z,20.00
2018-11-21T05:52:04.398Z,16.37
2018-11-21T05:54:31.451Z,14.63
2018-11-21T05:56:58.514Z,18.32
2018-11-21T05:59:25.583Z,13.28
2018-11-21T06:01:52.651Z,16.37
2018-11-21T06:04:19.710Z,16.27
2018-11-21T06:06:46.773Z,15.53
2018-11-21T06:09:13.838Z,15.20
2018-11-21T06:11:41.765Z,15.85
2018-11-21T06:14:08.823Z,16.62
2018-11-21T06:16:36.159Z,17.85
2018-11-21T06:19:03.195Z,11.50
2018-11-21T06:21:30.371Z,16.02
2018-11-21T06:23:57.427Z,13.18
2018-11-21T06:26:24.528Z,12.93
2018-11-21T06:28:51.596Z,19.77
2018-11-21T06:31:18.647Z,17.17
2018-11-21T06:33:45.733Z,18.50
2018-11-21T06:36:12.792Z,13.22
2018-11-21T06:38:39.850Z,15.50
2018-11-21T06:41:06.908Z,14.55
2018-11-21T06:43:33.993Z,12.90
2018-11-21T06:46:01.047Z,12.95
2018-11-21T06:48:28.106Z,14.58
2018-11-21T06:50:55.152Z,22.70
2018-11-21T06:53:22.202Z,17.67
2018-11-21T06:55:49.299Z,16.27
2018-11-21T06:58:16.357Z,14.18
2018-11-21T07:00:43.421Z,12.03
2018-11-21T07:03:10.495Z,13.60
2018-11-21T07:05:37.576Z,14.80
2018-11-21T07:08:04.660Z,14.15
2018-11-21T07:10:31.732Z,16.62
2018-11-21T07:12:58.805Z,12.93
2018-11-21T07:15:25.871Z,14.70
2018-11-21T07:17:52.927Z,14.68
2018-11-21T07:20:19.955Z,13.15
2018-11-21T07:22:47.237Z,18.48
2018-11-21T07:25:19.290Z,13.72
2018-11-21T07:27:46.462Z,13.85
2018-11-21T07:30:14.587Z,14.68
2018-11-21T07:32:41.772Z,10.75
2018-11-21T07:35:09.129Z,12.10
2018-11-21T07:37:36.366Z,11.48
2018-11-21T07:40:05.526Z,9.75
2018-11-21T07:42:32.584Z,10.82
2018-11-21T07:44:59.673Z,11.83
2018-11-21T07:47:26.737Z,13.10
2018-11-21T07:49:53.771Z,12.50
2018-11-21T07:52:20.860Z,12.07
2018-11-21T07:54:49.201Z,11.10
2018-11-21T07:57:28.290Z,9.98
2018-11-21T08:01:02.424Z,9.85
2018-11-21T08:03:31.720Z,11.70
2018-11-21T08:06:04.517Z,8.25
2018-11-21T08:08:40.977Z,9.13
2018-11-21T08:11:26.531Z,8.48
2018-11-21T08:14:02.597Z,6.72
2018-11-21T08:16:48.096Z,7.60
2018-11-21T08:19:29.048Z,7.55
2018-11-21T08:22:14.435Z,8.75
2018-11-21T08:25:19.194Z,9.35
2018-11-21T08:28:08.772Z,12.98
2018-11-21T08:30:35.832Z,17.90
2018-11-21T08:33:02.956Z,20.97
2018-11-21T08:35:30.020Z,21.20
2018-11-21T08:37:57.109Z,19.45
2018-11-21T08:40:24.254Z,21.15
2018-11-21T08:42:51.313Z,16.80
2018-11-21T08:45:18.474Z,18.67
2018-11-21T08:47:45.547Z,21.82
2018-11-21T08:50:12.610Z,26.48
2018-11-21T08:52:39.657Z,33.02
2018-11-21T08:55:09.016Z,34.78
2018-11-21T08:57:34.477Z,29.20
2018-11-21T09:00:01.573Z,26.70
2018-11-21T09:02:28.660Z,33.60
2018-11-21T09:04:55.740Z,26.23
2018-11-21T09:07:22.835Z,20.88
2018-11-21T09:09:49.919Z,24.82
2018-11-21T09:12:16.997Z,22.85
2018-11-21T09:14:44.103Z,23.47
2018-11-21T09:17:11.260Z,21.25
2018-11-21T09:19:38.600Z,30.32
2018-11-21T09:22:09.109Z,22.65
2018-11-21T09:24:36.202Z,21.68
2018-11-21T09:27:03.697Z,24.80
2018-11-21T09:29:30.901Z,20.52
2018-11-21T09:31:58.088Z,20.85
2018-11-21T09:34:25.201Z,25.15
2018-11-21T09:36:52.880Z,17.15
2018-11-21T09:39:21.450Z,19.45
2018-11-21T09:41:48.989Z,20.27
2018-11-21T09:44:16.123Z,23.70
2018-11-21T09:46:46.190Z,22.17
2018-11-21T09:49:13.275Z,26.25
2018-11-21T09:51:40.437Z,25.82
2018-11-21T09:54:07.582Z,34.75
2018-11-21T09:56:34.893Z,24.77
2018-11-21T09:59:02.031Z,26.93
2018-11-21T10:02:06.181Z,22.22
2018-11-21T10:04:35.787Z,19.15
2018-11-21T10:07:02.895Z,18.35
2018-11-21T10:09:32.545Z,21.82
2018-11-21T10:11:59.610Z,28.70
2018-11-21T10:14:26.768Z,21.80
2018-11-21T10:16:53.885Z,23.85
2018-11-21T10:19:21.000Z,21.35
2018-11-21T10:21:48.085Z,21.75
2018-11-21T10:24:15.166Z,27.48
2018-11-21T10:26:42.781Z,32.85
2018-11-21T10:29:10.110Z,34.00
2018-11-21T10:31:38.822Z,22.80
2018-11-21T10:34:06.081Z,19.67
2018-11-21T10:36:33.381Z,17.73
2018-11-21T10:39:00.695Z,15.28
2018-11-21T10:41:28.362Z,18.60
2018-11-21T10:43:55.523Z,33.30
2018-11-21T10:46:22.803Z,24.15
2018-11-21T10:48:50.018Z,19.95
2018-11-21T10:51:17.152Z,20.43
2018-11-21T10:53:44.233Z,19.82
2018-11-21T10:56:11.350Z,18.77
2018-11-21T10:58:38.610Z,25.65
2018-11-21T11:01:43.498Z,23.77
2018-11-21T11:04:18.882Z,25.35
2018-11-21T11:07:08.348Z,34.03
2018-11-21T11:09:48.801Z,33.53
2018-11-21T11:12:35.484Z,24.98
2018-11-21T11:15:20.628Z,27.02
2018-11-21T11:18:09.976Z,31.00
2018-11-21T11:20:50.507Z,29.87
2018-11-21T11:23:52.254Z,36.25
2018-11-21T11:26:42.719Z,29.77
2018-11-21T11:29:28.080Z,28.67
2018-11-21T11:32:17.403Z,30.92
2018-11-21T11:35:04.055Z,34.05
2018-11-21T11:37:45.490Z,27.02
2018-11-21T11:40:50.189Z,30.35
2018-11-21T11:43:39.492Z,27.25
2018-11-21T11:46:25.152Z,33.65
2018-11-21T11:49:04.091Z,26.42
2018-11-21T11:51:49.854Z,28.92
2018-11-21T11:54:39.583Z,27.37
2018-11-21T11:57:26.214Z,23.80
2018-11-21T12:00:12.891Z,26.17
2018-11-21T12:02:58.396Z,23.18
